Terminal Aerodrome Forecast
Issued by NWS

Home | Current Version | Previous Version | Graphics & Text | Print | Product List | Glossary On
Versions: 1 2 3 4 5 6 7 8 9 10 11 12 13 14 15 16 17 18 19 20
000
FTUS43 KOAX 021800 CCA
TAFCDR
TAF COR
KCDR 021800Z 0218/0318 18015KT P6SM BKN150
     FM022200 17010KT P6SM OVC070
     FM030400 03010KT 1SM -SN BKN004 OVC010
     FM030900 36017G25KT 1SM -SN OVC007=

USA.gov is the U.S. government's official web portal to all federal, state and local government web resources and services.